sensor_id;sensor_type;location;lat;lon;timestamp;P1;durP1;ratioP1;P2;durP2;ratioP2
15516;SDS011;7860;52.030;5.572;2023-02-28T00:03:10;9.59;;;4.63;;
15516;SDS011;7860;52.030;5.572;2023-02-28T00:03:10;8.42;;;4.16;;
15516;SDS011;7860;52.030;5.572;2023-02-28T00:04:01;10.09;;;4.61;;
15516;SDS011;7860;52.030;5.572;2023-02-28T00:05:00;8.80;;;4.62;;
15516;SDS011;7860;52.030;5.572;2023-02-28T00:06:02;9.16;;;4.31;;
15516;SDS011;7860;52.030;5.572;2023-02-28T00:07:02;9.12;;;4.45;;
15516;SDS011;7860;52.030;5.572;2023-02-28T00:08:03;11.26;;;4.62;;
15516;SDS011;7860;52.030;5.572;2023-02-28T00:09:03;9.13;;;4.24;;
15516;SDS011;7860;52.030;5.572;2023-02-28T00:10:05;9.15;;;4.14;;
15516;SDS011;7860;52.030;5.572;2023-02-28T00:11:05;9.94;;;4.68;;
15516;SDS011;7860;52.030;5.572;2023-02-28T00:12:06;9.10;;;4.47;;
15516;SDS011;7860;52.030;5.572;2023-02-28T00:13:07;8.77;;;4.71;;
15516;SDS011;7860;52.030;5.572;2023-02-28T00:14:07;11.31;;;4.81;;
15516;SDS011;7860;52.030;5.572;2023-02-28T00:15:09;10.56;;;4.45;;
15516;SDS011;7860;52.030;5.572;2023-02-28T00:16:09;8.43;;;4.56;;
15516;SDS011;7860;52.030;5.572;2023-02-28T00:17:08;10.62;;;5.12;;
15516;SDS011;7860;52.030;5.572;2023-02-28T00:18:09;9.50;;;5.02;;
15516;SDS011;7860;52.030;5.572;2023-02-28T00:19:09;10.39;;;5.20;;
15516;SDS011;7860;52.030;5.572;2023-02-28T00:20:10;8.79;;;4.57;;
15516;SDS011;7860;52.030;5.572;2023-02-28T00:21:11;9.36;;;4.65;;
15516;SDS011;7860;52.030;5.572;2023-02-28T00:22:11;10.84;;;5.22;;
15516;SDS011;7860;52.030;5.572;2023-02-28T00:23:12;9.56;;;4.51;;
15516;SDS011;7860;52.030;5.572;2023-02-28T00:24:13;10.13;;;4.83;;
15516;SDS011;7860;52.030;5.572;2023-02-28T00:25:14;10.00;;;4.82;;
15516;SDS011;7860;52.030;5.572;2023-02-28T00:26:14;10.45;;;5.15;;
15516;SDS011;7860;52.030;5.572;2023-02-28T00:27:14;11.10;;;4.82;;
15516;SDS011;7860;52.030;5.572;2023-02-28T00:28:14;8.89;;;4.48;;
15516;SDS011;7860;52.030;5.572;2023-02-28T00:29:15;9.79;;;4.51;;
15516;SDS011;7860;52.030;5.572;2023-02-28T00:30:16;9.76;;;4.79;;
15516;SDS011;7860;52.030;5.572;2023-02-28T00:31:16;12.68;;;4.85;;
15516;SDS011;7860;52.030;5.572;2023-02-28T00:32:16;10.97;;;4.75;;
15516;SDS011;7860;52.030;5.572;2023-02-28T00:33:17;10.79;;;4.66;;
15516;SDS011;7860;52.030;5.572;2023-02-28T00:34:18;11.39;;;4.89;;
15516;SDS011;7860;52.030;5.572;2023-02-28T00:35:19;11.03;;;4.90;;
15516;SDS011;7860;52.030;5.572;2023-02-28T00:36:20;10.27;;;4.95;;
15516;SDS011;7860;52.030;5.572;2023-02-28T00:37:21;8.08;;;4.63;;
15516;SDS011;7860;52.030;5.572;2023-02-28T00:38:22;9.82;;;4.66;;
15516;SDS011;7860;52.030;5.572;2023-02-28T00:39:23;10.30;;;4.91;;
15516;SDS011;7860;52.030;5.572;2023-02-28T00:40:23;9.45;;;4.59;;
15516;SDS011;7860;52.030;5.572;2023-02-28T00:41:24;10.80;;;5.25;;
15516;SDS011;7860;52.030;5.572;2023-02-28T00:42:25;11.26;;;4.99;;
15516;SDS011;7860;52.030;5.572;2023-02-28T00:43:25;9.02;;;4.86;;
15516;SDS011;7860;52.030;5.572;2023-02-28T00:44:26;10.95;;;4.83;;
15516;SDS011;7860;52.030;5.572;2023-02-28T00:45:27;8.98;;;4.77;;
15516;SDS011;7860;52.030;5.572;2023-02-28T00:46:28;10.31;;;4.86;;
15516;SDS011;7860;52.030;5.572;2023-02-28T00:47:29;10.33;;;4.83;;
15516;SDS011;7860;52.030;5.572;2023-02-28T00:48:29;12.65;;;4.87;;
15516;SDS011;7860;52.030;5.572;2023-02-28T00:49:30;9.75;;;4.91;;
15516;SDS011;7860;52.030;5.572;2023-02-28T00:50:31;9.70;;;4.53;;
15516;SDS011;7860;52.030;5.572;2023-02-28T00:51:32;11.07;;;4.85;;
15516;SDS011;7860;52.030;5.572;2023-02-28T00:52:33;10.70;;;4.60;;
15516;SDS011;7860;52.030;5.572;2023-02-28T00:53:34;10.36;;;4.59;;
15516;SDS011;7860;52.030;5.572;2023-02-28T00:54:35;9.89;;;4.86;;
15516;SDS011;7860;52.030;5.572;2023-02-28T00:55:35;11.61;;;4.91;;
15516;SDS011;7860;52.030;5.572;2023-02-28T00:56:35;10.87;;;4.82;;
15516;SDS011;7860;52.030;5.572;2023-02-28T00:57:36;9.31;;;4.90;;
15516;SDS011;7860;52.030;5.572;2023-02-28T00:58:37;9.84;;;4.94;;
15516;SDS011;7860;52.030;5.572;2023-02-28T00:59:38;11.19;;;4.99;;
15516;SDS011;7860;52.030;5.572;2023-02-28T01:00:39;10.18;;;4.56;;
15516;SDS011;7860;52.030;5.572;2023-02-28T01:01:39;10.15;;;4.40;;
15516;SDS011;7860;52.030;5.572;2023-02-28T01:02:40;9.46;;;4.61;;
15516;SDS011;7860;52.030;5.572;2023-02-28T01:03:41;10.32;;;4.98;;
15516;SDS011;7860;52.030;5.572;2023-02-28T01:04:42;11.11;;;4.86;;
15516;SDS011;7860;52.030;5.572;2023-02-28T01:05:42;11.27;;;4.64;;
15516;SDS011;7860;52.030;5.572;2023-02-28T01:06:43;11.69;;;5.26;;
15516;SDS011;7860;52.030;5.572;2023-02-28T01:07:43;9.83;;;4.57;;
15516;SDS011;7860;52.030;5.572;2023-02-28T01:08:44;10.92;;;4.80;;
15516;SDS011;7860;52.030;5.572;2023-02-28T01:09:45;9.12;;;4.48;;
15516;SDS011;7860;52.030;5.572;2023-02-28T01:10:46;10.24;;;4.49;;
15516;SDS011;7860;52.030;5.572;2023-02-28T01:11:47;9.94;;;4.49;;
15516;SDS011;7860;52.030;5.572;2023-02-28T01:12:48;9.89;;;4.78;;
15516;SDS011;7860;52.030;5.572;2023-02-28T01:13:49;10.34;;;4.50;;
15516;SDS011;7860;52.030;5.572;2023-02-28T01:14:50;10.07;;;4.32;;
15516;SDS011;7860;52.030;5.572;2023-02-28T01:15:52;9.49;;;4.27;;
15516;SDS011;7860;52.030;5.572;2023-02-28T01:16:52;10.09;;;4.52;;
15516;SDS011;7860;52.030;5.572;2023-02-28T01:17:52;10.82;;;4.30;;
15516;SDS011;7860;52.030;5.572;2023-02-28T01:18:53;9.44;;;4.31;;
15516;SDS011;7860;52.030;5.572;2023-02-28T01:19:54;9.14;;;4.30;;
15516;SDS011;7860;52.030;5.572;2023-02-28T01:20:54;10.92;;;4.34;;
15516;SDS011;7860;52.030;5.572;2023-02-28T01:21:55;9.46;;;4.25;;
15516;SDS011;7860;52.030;5.572;2023-02-28T01:22:56;9.44;;;4.27;;
15516;SDS011;7860;52.030;5.572;2023-02-28T01:23:57;9.20;;;4.09;;
15516;SDS011;7860;52.030;5.572;2023-02-28T01:24:58;10.69;;;4.72;;
15516;SDS011;7860;52.030;5.572;2023-02-28T01:26:03;10.17;;;4.54;;
15516;SDS011;7860;52.030;5.572;2023-02-28T01:27:00;8.76;;;4.14;;
15516;SDS011;7860;52.030;5.572;2023-02-28T01:28:00;10.59;;;4.71;;
15516;SDS011;7860;52.030;5.572;2023-02-28T01:29:01;10.36;;;4.94;;
15516;SDS011;7860;52.030;5.572;2023-02-28T01:30:03;8.77;;;4.10;;
15516;SDS011;7860;52.030;5.572;2023-02-28T01:31:03;8.90;;;4.36;;
15516;SDS011;7860;52.030;5.572;2023-02-28T01:32:03;10.46;;;4.58;;
15516;SDS011;7860;52.030;5.572;2023-02-28T01:33:03;9.12;;;4.34;;
15516;SDS011;7860;52.030;5.572;2023-02-28T01:34:04;8.66;;;4.21;;
15516;SDS011;7860;52.030;5.572;2023-02-28T01:35:05;11.18;;;4.30;;
15516;SDS011;7860;52.030;5.572;2023-02-28T01:36:07;10.21;;;4.50;;
15516;SDS011;7860;52.030;5.572;2023-02-28T01:37:06;10.45;;;4.13;;
15516;SDS011;7860;52.030;5.572;2023-02-28T01:38:06;9.43;;;4.09;;
15516;SDS011;7860;52.030;5.572;2023-02-28T01:39:08;9.95;;;4.32;;
15516;SDS011;7860;52.030;5.572;2023-02-28T01:40:08;8.98;;;3.82;;
15516;SDS011;7860;52.030;5.572;2023-02-28T01:41:09;8.78;;;4.04;;
15516;SDS011;7860;52.030;5.572;2023-02-28T01:42:09;9.24;;;3.98;;
15516;SDS011;7860;52.030;5.572;2023-02-28T01:43:12;9.71;;;4.17;;
15516;SDS011;7860;52.030;5.572;2023-02-28T01:45:16;8.18;;;4.28;;
15516;SDS011;7860;52.030;5.572;2023-02-28T01:45:18;8.43;;;4.26;;
15516;SDS011;7860;52.030;5.572;2023-02-28T01:46:12;10.32;;;4.07;;
15516;SDS011;7860;52.030;5.572;2023-02-28T01:47:12;9.69;;;4.16;;
15516;SDS011;7860;52.030;5.572;2023-02-28T01:48:12;8.61;;;3.93;;
15516;SDS011;7860;52.030;5.572;2023-02-28T01:49:14;11.99;;;4.07;;
15516;SDS011;7860;52.030;5.572;2023-02-28T01:50:14;10.03;;;4.39;;
15516;SDS011;7860;52.030;5.572;2023-02-28T01:51:15;8.86;;;4.25;;
15516;SDS011;7860;52.030;5.572;2023-02-28T01:52:14;8.90;;;4.50;;
15516;SDS011;7860;52.030;5.572;2023-02-28T01:53:16;9.40;;;4.46;;
15516;SDS011;7860;52.030;5.572;2023-02-28T01:54:16;8.84;;;4.49;;
15516;SDS011;7860;52.030;5.572;2023-02-28T01:55:16;10.04;;;4.28;;
15516;SDS011;7860;52.030;5.572;2023-02-28T01:56:17;8.92;;;4.16;;
15516;SDS011;7860;52.030;5.572;2023-02-28T01:57:18;9.94;;;3.88;;
15516;SDS011;7860;52.030;5.572;2023-02-28T01:58:19;8.79;;;3.72;;
15516;SDS011;7860;52.030;5.572;2023-02-28T01:59:21;8.49;;;4.14;;
15516;SDS011;7860;52.030;5.572;2023-02-28T02:00:21;8.08;;;3.88;;
15516;SDS011;7860;52.030;5.572;2023-02-28T02:01:21;8.97;;;3.95;;
15516;SDS011;7860;52.030;5.572;2023-02-28T02:02:21;11.21;;;3.93;;
15516;SDS011;7860;52.030;5.572;2023-02-28T02:03:21;8.97;;;3.97;;
15516;SDS011;7860;52.030;5.572;2023-02-28T02:04:22;9.16;;;3.93;;
15516;SDS011;7860;52.030;5.572;2023-02-28T02:05:23;8.73;;;3.90;;
15516;SDS011;7860;52.030;5.572;2023-02-28T02:06:24;8.42;;;3.90;;
15516;SDS011;7860;52.030;5.572;2023-02-28T02:07:23;9.54;;;3.96;;
15516;SDS011;7860;52.030;5.572;2023-02-28T02:08:25;8.72;;;4.00;;
15516;SDS011;7860;52.030;5.572;2023-02-28T02:09:25;8.29;;;4.04;;
15516;SDS011;7860;52.030;5.572;2023-02-28T02:10:27;8.54;;;4.18;;
15516;SDS011;7860;52.030;5.572;2023-02-28T02:11:26;7.74;;;3.86;;
15516;SDS011;7860;52.030;5.572;2023-02-28T02:12:28;9.20;;;4.04;;
15516;SDS011;7860;52.030;5.572;2023-02-28T02:13:31;8.05;;;4.01;;
15516;SDS011;7860;52.030;5.572;2023-02-28T02:14:31;9.65;;;4.20;;
15516;SDS011;7860;52.030;5.572;2023-02-28T02:15:29;8.41;;;4.00;;
15516;SDS011;7860;52.030;5.572;2023-02-28T02:16:33;10.15;;;4.14;;
15516;SDS011;7860;52.030;5.572;2023-02-28T02:17:31;8.91;;;4.30;;
15516;SDS011;7860;52.030;5.572;2023-02-28T02:18:32;10.08;;;4.59;;
15516;SDS011;7860;52.030;5.572;2023-02-28T02:19:38;9.01;;;4.15;;
15516;SDS011;7860;52.030;5.572;2023-02-28T02:20:46;8.61;;;4.06;;
15516;SDS011;7860;52.030;5.572;2023-02-28T02:21:44;8.08;;;3.89;;
15516;SDS011;7860;52.030;5.572;2023-02-28T02:22:37;7.89;;;4.20;;
15516;SDS011;7860;52.030;5.572;2023-02-28T02:23:46;8.96;;;4.31;;
15516;SDS011;7860;52.030;5.572;2023-02-28T02:24:39;9.52;;;4.43;;
15516;SDS011;7860;52.030;5.572;2023-02-28T02:25:34;7.91;;;4.11;;
15516;SDS011;7860;52.030;5.572;2023-02-28T02:26:53;8.19;;;4.11;;
15516;SDS011;7860;52.030;5.572;2023-02-28T02:27:40;9.31;;;4.62;;
15516;SDS011;7860;52.030;5.572;2023-02-28T02:28:41;10.11;;;4.55;;
15516;SDS011;7860;52.030;5.572;2023-02-28T02:29:57;8.79;;;4.27;;
15516;SDS011;7860;52.030;5.572;2023-02-28T02:30:43;10.51;;;4.69;;
15516;SDS011;7860;52.030;5.572;2023-02-28T02:31:43;9.20;;;4.59;;
15516;SDS011;7860;52.030;5.572;2023-02-28T02:32:44;8.57;;;4.46;;
15516;SDS011;7860;52.030;5.572;2023-02-28T02:33:45;8.38;;;4.24;;
15516;SDS011;7860;52.030;5.572;2023-02-28T02:34:42;8.37;;;4.37;;
15516;SDS011;7860;52.030;5.572;2023-02-28T02:35:41;9.65;;;4.20;;
15516;SDS011;7860;52.030;5.572;2023-02-28T02:36:42;8.67;;;4.16;;
15516;SDS011;7860;52.030;5.572;2023-02-28T02:37:43;8.44;;;4.05;;
15516;SDS011;7860;52.030;5.572;2023-02-28T02:38:45;9.23;;;4.52;;
15516;SDS011;7860;52.030;5.572;2023-02-28T02:39:45;10.06;;;4.37;;
15516;SDS011;7860;52.030;5.572;2023-02-28T02:40:47;8.67;;;4.07;;
15516;SDS011;7860;52.030;5.572;2023-02-28T02:41:45;7.69;;;4.11;;
15516;SDS011;7860;52.030;5.572;2023-02-28T02:42:47;8.49;;;4.03;;
15516;SDS011;7860;52.030;5.572;2023-02-28T02:43:47;8.92;;;4.52;;
15516;SDS011;7860;52.030;5.572;2023-02-28T02:44:47;9.73;;;4.46;;
15516;SDS011;7860;52.030;5.572;2023-02-28T02:45:48;8.00;;;4.18;;
15516;SDS011;7860;52.030;5.572;2023-02-28T02:46:48;9.43;;;4.51;;
15516;SDS011;7860;52.030;5.572;2023-02-28T02:47:49;8.74;;;4.41;;
15516;SDS011;7860;52.030;5.572;2023-02-28T02:48:50;8.86;;;4.25;;
15516;SDS011;7860;52.030;5.572;2023-02-28T02:49:50;9.18;;;4.34;;
15516;SDS011;7860;52.030;5.572;2023-02-28T02:50:52;9.73;;;4.19;;
15516;SDS011;7860;52.030;5.572;2023-02-28T02:51:51;9.81;;;4.28;;
15516;SDS011;7860;52.030;5.572;2023-02-28T02:52:52;10.75;;;4.32;;
15516;SDS011;7860;52.030;5.572;2023-02-28T02:53:53;8.55;;;4.21;;
15516;SDS011;7860;52.030;5.572;2023-02-28T02:54:54;8.71;;;4.38;;
15516;SDS011;7860;52.030;5.572;2023-02-28T02:55:54;9.60;;;4.39;;
15516;SDS011;7860;52.030;5.572;2023-02-28T02:56:54;8.48;;;3.85;;
15516;SDS011;7860;52.030;5.572;2023-02-28T02:57:56;10.94;;;4.51;;
15516;SDS011;7860;52.030;5.572;2023-02-28T02:58:56;9.16;;;3.96;;
15516;SDS011;7860;52.030;5.572;2023-02-28T02:59:56;9.97;;;4.20;;
15516;SDS011;7860;52.030;5.572;2023-02-28T03:00:58;9.07;;;3.98;;
15516;SDS011;7860;52.030;5.572;2023-02-28T03:01:58;10.05;;;4.17;;
15516;SDS011;7860;52.030;5.572;2023-02-28T03:02:57;9.89;;;4.25;;
15516;SDS011;7860;52.030;5.572;2023-02-28T03:03:59;7.69;;;4.10;;
15516;SDS011;7860;52.030;5.572;2023-02-28T03:04:59;8.30;;;4.12;;
15516;SDS011;7860;52.030;5.572;2023-02-28T03:05:59;8.72;;;4.01;;
15516;SDS011;7860;52.030;5.572;2023-02-28T03:07:00;9.14;;;4.18;;
15516;SDS011;7860;52.030;5.572;2023-02-28T03:08:02;11.24;;;4.14;;
15516;SDS011;7860;52.030;5.572;2023-02-28T03:09:00;8.70;;;4.22;;
15516;SDS011;7860;52.030;5.572;2023-02-28T03:10:02;9.78;;;4.26;;
15516;SDS011;7860;52.030;5.572;2023-02-28T03:11:03;9.02;;;4.29;;
15516;SDS011;7860;52.030;5.572;2023-02-28T03:12:02;9.85;;;4.43;;
15516;SDS011;7860;52.030;5.572;2023-02-28T03:13:09;8.57;;;4.28;;
15516;SDS011;7860;52.030;5.572;2023-02-28T03:14:09;10.20;;;4.36;;
15516;SDS011;7860;52.030;5.572;2023-02-28T03:15:06;9.11;;;4.27;;
15516;SDS011;7860;52.030;5.572;2023-02-28T03:16:10;8.91;;;4.46;;
15516;SDS011;7860;52.030;5.572;2023-02-28T03:17:10;8.48;;;4.30;;
15516;SDS011;7860;52.030;5.572;2023-02-28T03:18:06;9.83;;;4.31;;
15516;SDS011;7860;52.030;5.572;2023-02-28T03:19:10;8.71;;;4.14;;
15516;SDS011;7860;52.030;5.572;2023-02-28T03:20:09;9.19;;;4.28;;
15516;SDS011;7860;52.030;5.572;2023-02-28T03:21:10;9.79;;;4.36;;
15516;SDS011;7860;52.030;5.572;2023-02-28T03:22:14;8.60;;;4.19;;
15516;SDS011;7860;52.030;5.572;2023-02-28T03:23:10;10.00;;;4.27;;
15516;SDS011;7860;52.030;5.572;2023-02-28T03:24:10;11.79;;;4.41;;
15516;SDS011;7860;52.030;5.572;2023-02-28T03:25:12;8.69;;;4.19;;
15516;SDS011;7860;52.030;5.572;2023-02-28T03:26:12;8.59;;;3.90;;
15516;SDS011;7860;52.030;5.572;2023-02-28T03:27:13;8.67;;;4.24;;
15516;SDS011;7860;52.030;5.572;2023-02-28T03:28:13;9.18;;;4.34;;
15516;SDS011;7860;52.030;5.572;2023-02-28T03:29:13;9.26;;;4.57;;
15516;SDS011;7860;52.030;5.572;2023-02-28T03:30:14;8.70;;;4.12;;
15516;SDS011;7860;52.030;5.572;2023-02-28T03:31:15;8.88;;;4.26;;
15516;SDS011;7860;52.030;5.572;2023-02-28T03:32:14;10.54;;;4.30;;
15516;SDS011;7860;52.030;5.572;2023-02-28T03:33:14;9.93;;;4.31;;
15516;SDS011;7860;52.030;5.572;2023-02-28T03:34:15;10.40;;;4.50;;
15516;SDS011;7860;52.030;5.572;2023-02-28T03:35:16;9.26;;;4.51;;
15516;SDS011;7860;52.030;5.572;2023-02-28T03:36:17;9.65;;;4.28;;
15516;SDS011;7860;52.030;5.572;2023-02-28T03:37:18;8.57;;;4.27;;
15516;SDS011;7860;52.030;5.572;2023-02-28T03:38:18;10.30;;;4.62;;
15516;SDS011;7860;52.030;5.572;2023-02-28T03:39:18;9.51;;;4.38;;
15516;SDS011;7860;52.030;5.572;2023-02-28T03:40:19;8.60;;;4.31;;
15516;SDS011;7860;52.030;5.572;2023-02-28T03:41:20;9.36;;;4.73;;
15516;SDS011;7860;52.030;5.572;2023-02-28T03:42:20;12.88;;;4.99;;
15516;SDS011;7860;52.030;5.572;2023-02-28T03:43:22;11.05;;;4.93;;
15516;SDS011;7860;52.030;5.572;2023-02-28T03:44:21;9.95;;;4.69;;
15516;SDS011;7860;52.030;5.572;2023-02-28T03:45:22;12.16;;;5.17;;
15516;SDS011;7860;52.030;5.572;2023-02-28T03:46:23;11.18;;;4.97;;
15516;SDS011;7860;52.030;5.572;2023-02-28T03:47:23;10.17;;;4.66;;
15516;SDS011;7860;52.030;5.572;2023-02-28T03:48:24;9.75;;;4.85;;
15516;SDS011;7860;52.030;5.572;2023-02-28T03:49:24;10.59;;;4.53;;
15516;SDS011;7860;52.030;5.572;2023-02-28T03:50:24;9.62;;;4.57;;
15516;SDS011;7860;52.030;5.572;2023-02-28T03:51:24;9.89;;;4.54;;
15516;SDS011;7860;52.030;5.572;2023-02-28T03:52:27;10.64;;;4.32;;
15516;SDS011;7860;52.030;5.572;2023-02-28T03:53:25;10.66;;;4.39;;
15516;SDS011;7860;52.030;5.572;2023-02-28T03:54:25;9.77;;;4.65;;
15516;SDS011;7860;52.030;5.572;2023-02-28T03:55:26;8.88;;;4.70;;
15516;SDS011;7860;52.030;5.572;2023-02-28T03:56:27;8.36;;;4.37;;
15516;SDS011;7860;52.030;5.572;2023-02-28T03:57:27;9.23;;;4.46;;
15516;SDS011;7860;52.030;5.572;2023-02-28T03:58:28;9.76;;;4.19;;
15516;SDS011;7860;52.030;5.572;2023-02-28T03:59:28;7.84;;;3.86;;
15516;SDS011;7860;52.030;5.572;2023-02-28T04:00:28;8.05;;;3.99;;
15516;SDS011;7860;52.030;5.572;2023-02-28T04:01:30;7.24;;;3.77;;
15516;SDS011;7860;52.030;5.572;2023-02-28T04:02:29;8.16;;;3.50;;
15516;SDS011;7860;52.030;5.572;2023-02-28T04:03:30;7.99;;;3.54;;
15516;SDS011;7860;52.030;5.572;2023-02-28T04:04:31;9.14;;;3.88;;
15516;SDS011;7860;52.030;5.572;2023-02-28T04:05:31;7.89;;;3.67;;
15516;SDS011;7860;52.030;5.572;2023-02-28T04:06:33;9.32;;;3.89;;
15516;SDS011;7860;52.030;5.572;2023-02-28T04:07:33;7.06;;;3.26;;
15516;SDS011;7860;52.030;5.572;2023-02-28T04:08:33;6.60;;;2.92;;
15516;SDS011;7860;52.030;5.572;2023-02-28T04:09:33;7.91;;;3.04;;
15516;SDS011;7860;52.030;5.572;2023-02-28T04:10:34;7.85;;;3.19;;
15516;SDS011;7860;52.030;5.572;2023-02-28T04:11:35;7.57;;;3.38;;
15516;SDS011;7860;52.030;5.572;2023-02-28T04:12:35;6.91;;;3.24;;
15516;SDS011;7860;52.030;5.572;2023-02-28T04:13:35;7.47;;;3.39;;
15516;SDS011;7860;52.030;5.572;2023-02-28T04:14:36;7.32;;;3.24;;
15516;SDS011;7860;52.030;5.572;2023-02-28T04:15:36;7.59;;;3.33;;
15516;SDS011;7860;52.030;5.572;2023-02-28T04:16:37;8.05;;;3.07;;
15516;SDS011;7860;52.030;5.572;2023-02-28T04:17:37;8.28;;;3.54;;
15516;SDS011;7860;52.030;5.572;2023-02-28T04:18:38;8.21;;;3.37;;
15516;SDS011;7860;52.030;5.572;2023-02-28T04:19:39;7.27;;;3.13;;
15516;SDS011;7860;52.030;5.572;2023-02-28T04:20:40;8.22;;;3.39;;
15516;SDS011;7860;52.030;5.572;2023-02-28T04:21:41;7.46;;;3.38;;
15516;SDS011;7860;52.030;5.572;2023-02-28T04:22:41;8.59;;;3.18;;
15516;SDS011;7860;52.030;5.572;2023-02-28T04:23:41;6.44;;;2.88;;
15516;SDS011;7860;52.030;5.572;2023-02-28T04:24:42;6.62;;;3.19;;
15516;SDS011;7860;52.030;5.572;2023-02-28T04:25:43;7.19;;;3.59;;
15516;SDS011;7860;52.030;5.572;2023-02-28T04:26:45;7.49;;;3.17;;
15516;SDS011;7860;52.030;5.572;2023-02-28T04:27:45;7.01;;;3.44;;
15516;SDS011;7860;52.030;5.572;2023-02-28T04:28:45;7.35;;;3.07;;
15516;SDS011;7860;52.030;5.572;2023-02-28T04:29:46;7.33;;;3.45;;
15516;SDS011;7860;52.030;5.572;2023-02-28T04:30:46;7.44;;;3.16;;
15516;SDS011;7860;52.030;5.572;2023-02-28T04:31:47;6.76;;;2.94;;
15516;SDS011;7860;52.030;5.572;2023-02-28T04:32:47;7.90;;;3.27;;
15516;SDS011;7860;52.030;5.572;2023-02-28T04:33:48;6.77;;;3.35;;
15516;SDS011;7860;52.030;5.572;2023-02-28T04:34:48;6.53;;;3.08;;
15516;SDS011;7860;52.030;5.572;2023-02-28T04:35:57;7.30;;;3.23;;
15516;SDS011;7860;52.030;5.572;2023-02-28T04:36:49;7.06;;;3.25;;
15516;SDS011;7860;52.030;5.572;2023-02-28T04:37:50;5.65;;;2.95;;
15516;SDS011;7860;52.030;5.572;2023-02-28T04:38:50;6.39;;;3.15;;
15516;SDS011;7860;52.030;5.572;2023-02-28T04:39:51;6.92;;;3.38;;
15516;SDS011;7860;52.030;5.572;2023-02-28T04:40:51;6.45;;;3.14;;
15516;SDS011;7860;52.030;5.572;2023-02-28T04:41:52;6.51;;;3.18;;
15516;SDS011;7860;52.030;5.572;2023-02-28T04:42:53;7.30;;;3.27;;
15516;SDS011;7860;52.030;5.572;2023-02-28T04:43:53;7.45;;;3.09;;
15516;SDS011;7860;52.030;5.572;2023-02-28T04:44:54;6.25;;;3.31;;
15516;SDS011;7860;52.030;5.572;2023-02-28T04:45:55;7.63;;;3.22;;
15516;SDS011;7860;52.030;5.572;2023-02-28T04:46:55;7.65;;;3.35;;
15516;SDS011;7860;52.030;5.572;2023-02-28T04:47:55;7.42;;;3.31;;
15516;SDS011;7860;52.030;5.572;2023-02-28T04:48:56;7.03;;;3.27;;
15516;SDS011;7860;52.030;5.572;2023-02-28T04:49:56;6.62;;;3.12;;
15516;SDS011;7860;52.030;5.572;2023-02-28T04:50:59;7.41;;;3.26;;
15516;SDS011;7860;52.030;5.572;2023-02-28T04:51:58;7.49;;;3.21;;
15516;SDS011;7860;52.030;5.572;2023-02-28T04:52:59;8.07;;;3.15;;
15516;SDS011;7860;52.030;5.572;2023-02-28T04:53:59;6.98;;;3.22;;
15516;SDS011;7860;52.030;5.572;2023-02-28T04:55:00;6.69;;;3.12;;
15516;SDS011;7860;52.030;5.572;2023-02-28T04:56:01;6.92;;;3.13;;
15516;SDS011;7860;52.030;5.572;2023-02-28T04:57:02;7.64;;;3.02;;
15516;SDS011;7860;52.030;5.572;2023-02-28T04:58:02;6.18;;;3.13;;
15516;SDS011;7860;52.030;5.572;2023-02-28T04:59:03;6.53;;;3.14;;
15516;SDS011;7860;52.030;5.572;2023-02-28T05:00:05;6.86;;;3.03;;
15516;SDS011;7860;52.030;5.572;2023-02-28T05:01:04;5.77;;;2.75;;
15516;SDS011;7860;52.030;5.572;2023-02-28T05:02:04;6.43;;;3.12;;
15516;SDS011;7860;52.030;5.572;2023-02-28T05:03:05;7.56;;;3.08;;
15516;SDS011;7860;52.030;5.572;2023-02-28T05:04:06;6.15;;;2.80;;
15516;SDS011;7860;52.030;5.572;2023-02-28T05:05:06;7.90;;;2.94;;
15516;SDS011;7860;52.030;5.572;2023-02-28T05:06:07;6.04;;;2.79;;
15516;SDS011;7860;52.030;5.572;2023-02-28T05:07:08;7.31;;;3.11;;
15516;SDS011;7860;52.030;5.572;2023-02-28T05:08:09;6.25;;;3.07;;
15516;SDS011;7860;52.030;5.572;2023-02-28T05:09:09;7.40;;;3.18;;
15516;SDS011;7860;52.030;5.572;2023-02-28T05:10:10;6.68;;;3.07;;
15516;SDS011;7860;52.030;5.572;2023-02-28T05:11:14;6.25;;;2.96;;
15516;SDS011;7860;52.030;5.572;2023-02-28T05:12:11;6.69;;;2.89;;
15516;SDS011;7860;52.030;5.572;2023-02-28T05:13:12;7.03;;;3.05;;
15516;SDS011;7860;52.030;5.572;2023-02-28T05:14:13;7.38;;;3.15;;
15516;SDS011;7860;52.030;5.572;2023-02-28T05:15:14;6.75;;;3.07;;
15516;SDS011;7860;52.030;5.572;2023-02-28T05:16:15;7.12;;;3.43;;
15516;SDS011;7860;52.030;5.572;2023-02-28T05:17:16;6.02;;;3.26;;
15516;SDS011;7860;52.030;5.572;2023-02-28T05:18:16;6.29;;;3.27;;
15516;SDS011;7860;52.030;5.572;2023-02-28T05:19:16;6.47;;;3.19;;
15516;SDS011;7860;52.030;5.572;2023-02-28T05:20:17;6.88;;;3.35;;
15516;SDS011;7860;52.030;5.572;2023-02-28T05:21:22;6.64;;;3.21;;
15516;SDS011;7860;52.030;5.572;2023-02-28T05:22:19;7.64;;;3.15;;
15516;SDS011;7860;52.030;5.572;2023-02-28T05:23:19;7.54;;;3.12;;
15516;SDS011;7860;52.030;5.572;2023-02-28T05:24:20;8.19;;;3.35;;
15516;SDS011;7860;52.030;5.572;2023-02-28T05:25:21;7.40;;;3.31;;
15516;SDS011;7860;52.030;5.572;2023-02-28T05:26:22;6.41;;;3.26;;
15516;SDS011;7860;52.030;5.572;2023-02-28T05:27:23;8.13;;;3.11;;
15516;SDS011;7860;52.030;5.572;2023-02-28T05:28:24;6.36;;;3.17;;
15516;SDS011;7860;52.030;5.572;2023-02-28T05:29:24;7.50;;;3.34;;
15516;SDS011;7860;52.030;5.572;2023-02-28T05:30:25;6.79;;;3.30;;
15516;SDS011;7860;52.030;5.572;2023-02-28T05:31:26;7.21;;;3.34;;
15516;SDS011;7860;52.030;5.572;2023-02-28T05:32:25;7.13;;;3.25;;
15516;SDS011;7860;52.030;5.572;2023-02-28T05:33:26;6.54;;;3.28;;
15516;SDS011;7860;52.030;5.572;2023-02-28T05:34:26;7.41;;;3.12;;
15516;SDS011;7860;52.030;5.572;2023-02-28T05:35:27;7.46;;;3.53;;
15516;SDS011;7860;52.030;5.572;2023-02-28T05:36:28;6.77;;;3.13;;
15516;SDS011;7860;52.030;5.572;2023-02-28T05:37:28;7.53;;;3.30;;
15516;SDS011;7860;52.030;5.572;2023-02-28T05:38:29;6.39;;;3.05;;
15516;SDS011;7860;52.030;5.572;2023-02-28T05:39:30;7.59;;;3.30;;
15516;SDS011;7860;52.030;5.572;2023-02-28T05:40:30;7.12;;;3.28;;
15516;SDS011;7860;52.030;5.572;2023-02-28T05:41:31;7.82;;;3.23;;
15516;SDS011;7860;52.030;5.572;2023-02-28T05:42:32;6.92;;;3.14;;
15516;SDS011;7860;52.030;5.572;2023-02-28T05:43:32;7.55;;;3.25;;
15516;SDS011;7860;52.030;5.572;2023-02-28T05:44:33;7.11;;;3.45;;
15516;SDS011;7860;52.030;5.572;2023-02-28T05:45:34;6.42;;;3.19;;
15516;SDS011;7860;52.030;5.572;2023-02-28T05:46:34;6.36;;;3.29;;
15516;SDS011;7860;52.030;5.572;2023-02-28T05:47:35;6.89;;;3.21;;
15516;SDS011;7860;52.030;5.572;2023-02-28T05:48:36;6.61;;;3.08;;
15516;SDS011;7860;52.030;5.572;2023-02-28T05:49:35;8.31;;;3.28;;
15516;SDS011;7860;52.030;5.572;2023-02-28T05:50:36;6.80;;;3.27;;
15516;SDS011;7860;52.030;5.572;2023-02-28T05:51:36;7.84;;;3.30;;
15516;SDS011;7860;52.030;5.572;2023-02-28T05:52:37;7.30;;;3.12;;
15516;SDS011;7860;52.030;5.572;2023-02-28T05:53:38;6.70;;;3.30;;
15516;SDS011;7860;52.030;5.572;2023-02-28T05:54:38;7.98;;;3.42;;
15516;SDS011;7860;52.030;5.572;2023-02-28T05:55:39;8.53;;;3.49;;
15516;SDS011;7860;52.030;5.572;2023-02-28T05:56:40;6.12;;;3.26;;
15516;SDS011;7860;52.030;5.572;2023-02-28T05:57:40;6.34;;;3.15;;
15516;SDS011;7860;52.030;5.572;2023-02-28T05:58:41;8.47;;;3.55;;
15516;SDS011;7860;52.030;5.572;2023-02-28T05:59:42;6.64;;;3.48;;
15516;SDS011;7860;52.030;5.572;2023-02-28T06:00:42;6.96;;;3.39;;
15516;SDS011;7860;52.030;5.572;2023-02-28T06:01:43;7.13;;;3.31;;
15516;SDS011;7860;52.030;5.572;2023-02-28T06:02:43;8.85;;;3.36;;
15516;SDS011;7860;52.030;5.572;2023-02-28T06:03:43;6.88;;;3.37;;
15516;SDS011;7860;52.030;5.572;2023-02-28T06:04:44;7.66;;;3.66;;
15516;SDS011;7860;52.030;5.572;2023-02-28T06:05:44;7.64;;;3.69;;
15516;SDS011;7860;52.030;5.572;2023-02-28T06:06:45;7.98;;;3.80;;
15516;SDS011;7860;52.030;5.572;2023-02-28T06:07:46;7.37;;;3.64;;
15516;SDS011;7860;52.030;5.572;2023-02-28T06:08:46;7.19;;;3.69;;
15516;SDS011;7860;52.030;5.572;2023-02-28T06:09:47;7.53;;;3.94;;
15516;SDS011;7860;52.030;5.572;2023-02-28T06:10:48;7.34;;;3.84;;